FTE weather

El Calafate Airport
El Calafate, Santa Cruz Province, Argentina

Public forecast

Using degrees Celsius for public forecast. Weather courtesy of forecast.io.

METAR (pilot weather report)

Report is more than 6 hours old.

Retrieved 2019/05/22 17:13 UTC (1 day ago):

SAWC 221713Z 25028G40KT 9999 FEW030 SCT090 16/05 Q1005

TAF (pilot weather forecast)

Forecast is more than 12 hours old.

Retrieved 2019/04/29 06:00 UTC (25 days ago):

TAF SAWC 290500Z 2906/3006 29005KT 9999 SCT020 SCT040 TX08/2919Z TN02/3006Z BECMG 2910/2912 26020KT TEMPO 2916/2919 27020G35KT BECMG 2922/3000 VRB03KT BKN020